Boise Air Terminal,Gowen field Boise US
ICAO: KBOI
IATA: BOI
Category: Large
Scheduled Services: Yes

Elevation: 2871 ft
TransAlt. 18000 ft.

Airport Communications:
APP/DEP:119.6
ATIS:123.9
CLNC DEL:125.9
SALT LAKE CITY CNTR:128.05
GND:121.7
ANG OPS:29.87
ARNG OPS:41.5
RDO:122.2
TWR:118.1
UNICOM:122.95

KBOI Zoom In..

Runways:

(A) RW 10L length 10000 ft width 150 ft
---- / hdg 100

(B) RW 10R length 9763 ft width 150 ft
ILS 111.10 / hdg 100

(C) RW 28L length 9763 ft width 150 ft
---- / hdg 280

(D) RW 28R length 10000 ft width 150 ft
ILS 110.15 / hdg 280

Location; KBOI
Day. 23 / Time. 14.53 Zulu
* Altimeter: 30.29
* Temperature: 00° c. 32°f.
* Wind from: 130° Speed 09 kn.
Dewpoint: -05° c.
Visibility: 10 Statute Miles.
Clouds: Clear (automated report).

KBOI 231453Z 13009KT 10SM CLR 00/M05 A3029 RMK AO2 SLP277 T00001050 58001


Wind From 130°
Speed 09 kn.

YouTube Music Video
 
jpsmedia.com for Web Design  worldairports.se 2018   terms of use